Time;durP1;ratioP1;P1;durP2;ratioP2;P2;SDS_P1;SDS_P2;PMS_P1;PMS_P2;Temp;Humidity;BMP_temperature;BMP_pressure;BME280_temperature;BME280_humidity;BME280_pressure;Samples;Min_cycle;Max_cycle;Signal;HPM_P1;HPM_P2
2022/05/16 00:01:57;;;;;;;7.27;4.80;;;;;;;;;;5095800;28;20459;-73
2022/05/16 00:04:24;;;;;;;9.60;5.70;;;;;;;;;;5095913;28;20450;-74
2022/05/16 00:06:51;;;;;;;6.50;5.70;;;;;;;;;;5095732;28;20490;-74
2022/05/16 00:09:19;;;;;;;9.83;5.37;;;;;;;;;;5095230;28;20473;-74
2022/05/16 00:11:47;;;;;;;7.47;6.70;;;;;;;;;;5095248;28;20484;-74
2022/05/16 00:14:14;;;;;;;8.67;6.00;;;;;;;;;;5095594;28;20455;-74
2022/05/16 00:16:41;;;;;;;7.37;5.90;;;;;;;;;;5095591;28;20446;-74
2022/05/16 00:19:08;;;;;;;8.03;5.50;;;;;;;;;;5095198;28;20447;-74
2022/05/16 00:21:36;;;;;;;8.07;5.30;;;;;;;;;;5095459;28;20446;-74
2022/05/16 00:24:03;;;;;;;9.33;5.43;;;;;;;;;;5094935;28;20520;-74
2022/05/16 00:26:30;;;;;;;16.13;6.83;;;;;;;;;;5095419;28;20486;-74
2022/05/16 00:28:59;;;;;;;8.57;5.67;;;;;;;;;;5094998;28;20462;-74
2022/05/16 00:31:26;;;;;;;7.57;5.40;;;;;;;;;;5095348;28;20450;-74
2022/05/16 00:33:53;;;;;;;5.93;5.00;;;;;;;;;;5095523;28;20461;-74
2022/05/16 00:36:20;;;;;;;9.20;5.47;;;;;;;;;;5095058;28;20454;-73
2022/05/16 00:38:47;;;;;;;5.60;5.03;;;;;;;;;;5094994;28;20543;-74
2022/05/16 00:41:14;;;;;;;7.27;5.53;;;;;;;;;;5094621;28;20477;-74
2022/05/16 00:43:43;;;;;;;7.53;5.77;;;;;;;;;;5094953;28;20974;-74
2022/05/16 00:46:12;;;;;;;6.00;5.40;;;;;;;;;;5094967;28;20987;-74
2022/05/16 00:48:39;;;;;;;10.57;6.20;;;;;;;;;;5094965;28;20865;-74
2022/05/16 00:51:06;;;;;;;5.37;4.87;;;;;;;;;;5094808;28;20482;-74
2022/05/16 00:53:34;;;;;;;7.90;5.37;;;;;;;;;;5094549;28;20447;-74
2022/05/16 00:56:01;;;;;;;10.17;5.43;;;;;;;;;;5094868;28;20635;-74
2022/05/16 00:58:28;;;;;;;5.50;5.03;;;;;;;;;;5094679;28;20816;-74
2022/05/16 01:00:55;;;;;;;7.67;5.60;;;;;;;;;;5094682;28;20964;-74
2022/05/16 01:06:09;;;;;;;9.57;5.40;;;;;;;;;;5094433;28;20833;-74
2022/05/16 01:08:43;;;;;;;6.40;5.80;;;;;;;;;;5093796;28;20812;-74
2022/05/16 01:11:11;;;;;;;7.73;5.90;;;;;;;;;;5094608;28;20477;-74
2022/05/16 01:13:39;;;;;;;7.77;6.80;;;;;;;;;;5094558;28;20453;-74
2022/05/16 01:16:06;;;;;;;10.27;5.77;;;;;;;;;;5094412;28;20451;-74
2022/05/16 01:18:34;;;;;;;6.73;6.03;;;;;;;;;;5094535;28;20435;-74
2022/05/16 01:21:08;;;;;;;6.73;6.13;;;;;;;;;;5094155;28;20471;-74
2022/05/16 01:23:39;;;;;;;6.00;5.43;;;;;;;;;;5094174;28;20466;-74
2022/05/16 01:26:08;;;;;;;7.33;6.63;;;;;;;;;;5094325;28;20810;-74
2022/05/16 01:28:35;;;;;;;11.30;6.30;;;;;;;;;;5094231;28;20816;-74
2022/05/16 01:31:02;;;;;;;14.93;5.93;;;;;;;;;;5094184;28;20474;-74
2022/05/16 01:33:29;;;;;;;7.30;6.37;;;;;;;;;;5094203;28;20821;-74
2022/05/16 01:35:56;;;;;;;8.50;6.30;;;;;;;;;;5094121;28;20451;-74
2022/05/16 01:38:26;;;;;;;8.80;6.37;;;;;;;;;;5093764;28;20454;-74
2022/05/16 01:40:56;;;;;;;10.10;5.80;;;;;;;;;;5093946;28;20477;-73
2022/05/16 01:43:24;;;;;;;9.30;5.93;;;;;;;;;;5094145;28;20947;-74
2022/05/16 01:45:51;;;;;;;10.20;6.10;;;;;;;;;;5093772;28;20455;-74
2022/05/16 01:48:19;;;;;;;8.90;6.67;;;;;;;;;;5093796;28;20491;-73
2022/05/16 01:50:47;;;;;;;7.90;6.03;;;;;;;;;;5093412;28;20462;-74
2022/05/16 01:53:14;;;;;;;8.60;6.30;;;;;;;;;;5093772;28;20454;-74
2022/05/16 01:55:41;;;;;;;5.90;5.40;;;;;;;;;;5093612;28;20489;-74
2022/05/16 01:58:10;;;;;;;7.33;6.63;;;;;;;;;;5093725;28;20928;-74
2022/05/16 02:00:37;;;;;;;6.33;5.10;;;;;;;;;;5093583;28;20478;-74
2022/05/16 02:03:06;;;;;;;9.40;6.80;;;;;;;;;;5093302;28;20458;-74
2022/05/16 02:05:33;;;;;;;6.97;6.27;;;;;;;;;;5093616;28;20932;-74
2022/05/16 02:08:01;;;;;;;7.03;6.33;;;;;;;;;;5093509;28;21005;-73
2022/05/16 02:10:28;;;;;;;9.53;5.83;;;;;;;;;;5093492;28;20845;-74
2022/05/16 02:12:57;;;;;;;7.90;6.70;;;;;;;;;;5093521;28;20940;-74
2022/05/16 02:15:26;;;;;;;7.73;6.57;;;;;;;;;;5093487;28;20495;-73
2022/05/16 02:17:53;;;;;;;7.80;6.30;;;;;;;;;;5093262;28;20438;-74
2022/05/16 02:20:21;;;;;;;7.77;5.73;;;;;;;;;;5093243;28;21013;-74
2022/05/16 02:25:33;;;;;;;6.93;5.53;;;;;;;;;;5093237;28;20453;-74
2022/05/16 02:28:01;;;;;;;6.93;6.23;;;;;;;;;;5093375;28;20497;-74
2022/05/16 02:30:29;;;;;;;6.57;5.70;;;;;;;;;;5093245;28;20471;-74
2022/05/16 02:32:57;;;;;;;6.23;5.47;;;;;;;;;;5093360;28;20454;-74
2022/05/16 02:35:24;;;;;;;8.20;6.90;;;;;;;;;;5093364;28;20454;-74
2022/05/16 02:37:51;;;;;;;7.27;6.57;;;;;;;;;;5093256;28;20932;-74
2022/05/16 02:40:18;;;;;;;10.27;5.57;;;;;;;;;;5092859;28;20466;-74
2022/05/16 02:42:45;;;;;;;8.30;6.60;;;;;;;;;;5093192;28;20454;-73
2022/05/16 02:45:13;;;;;;;8.23;6.50;;;;;;;;;;5093265;28;20447;-74
2022/05/16 02:47:41;;;;;;;10.10;7.23;;;;;;;;;;5093054;28;21033;-73
2022/05/16 02:50:09;;;;;;;6.63;6.00;;;;;;;;;;5093166;28;20477;-73
2022/05/16 02:52:36;;;;;;;10.33;6.40;;;;;;;;;;5092821;28;20454;-74
2022/05/16 02:55:03;;;;;;;7.13;6.43;;;;;;;;;;5092876;28;20516;-73
2022/05/16 02:57:31;;;;;;;8.50;7.10;;;;;;;;;;5093021;28;20454;-73
2022/05/16 02:59:58;;;;;;;8.60;6.20;;;;;;;;;;5092979;28;20489;-74
2022/05/16 03:02:25;;;;;;;7.70;6.90;;;;;;;;;;5092997;28;20455;-73
2022/05/16 03:04:54;;;;;;;9.07;7.27;;;;;;;;;;5093010;28;20450;-74
2022/05/16 03:07:21;;;;;;;8.10;6.20;;;;;;;;;;5092902;28;20862;-73
2022/05/16 03:09:48;;;;;;;9.90;6.10;;;;;;;;;;5092917;28;20811;-73
2022/05/16 03:12:15;;;;;;;9.30;6.67;;;;;;;;;;5092968;28;20454;-74
2022/05/16 03:14:42;;;;;;;7.10;6.27;;;;;;;;;;5092601;28;20450;-73
2022/05/16 03:17:09;;;;;;;7.27;6.63;;;;;;;;;;5092532;28;20450;-74
2022/05/16 03:19:36;;;;;;;9.37;7.43;;;;;;;;;;5092875;28;20477;-74
2022/05/16 03:22:05;;;;;;;8.73;7.53;;;;;;;;;;5092830;28;20462;-74
2022/05/16 03:24:33;;;;;;;10.67;7.53;;;;;;;;;;5092397;28;20458;-73
2022/05/16 03:27:00;;;;;;;9.03;7.47;;;;;;;;;;5092520;28;20486;-73
2022/05/16 03:29:27;;;;;;;8.43;7.30;;;;;;;;;;5092670;28;20565;-73
2022/05/16 03:31:55;;;;;;;8.03;7.30;;;;;;;;;;5094877;28;20458;-73
2022/05/16 03:34:22;;;;;;;12.30;8.10;;;;;;;;;;5096414;28;20450;-74
2022/05/16 03:36:49;;;;;;;11.77;6.47;;;;;;;;;;5096407;28;20454;-73
2022/05/16 03:42:02;;;;;;;7.83;6.53;;;;;;;;;;5096139;28;20410;-73
2022/05/16 03:44:30;;;;;;;7.13;5.80;;;;;;;;;;5096378;28;20454;-74
2022/05/16 03:46:58;;;;;;;10.17;5.80;;;;;;;;;;5096288;28;20825;-73
2022/05/16 03:49:25;;;;;;;6.20;5.60;;;;;;;;;;5095855;28;20467;-73
2022/05/16 03:51:53;;;;;;;5.80;5.20;;;;;;;;;;5096158;28;20519;-73
2022/05/16 03:54:21;;;;;;;8.80;5.80;;;;;;;;;;5095660;28;20453;-73
2022/05/16 03:56:48;;;;;;;9.00;5.40;;;;;;;;;;5095910;28;20461;-74
2022/05/16 03:59:15;;;;;;;8.83;6.80;;;;;;;;;;5095663;28;20482;-74
2022/05/16 04:01:44;;;;;;;7.80;6.43;;;;;;;;;;5095889;28;20801;-73
2022/05/16 04:04:11;;;;;;;8.83;6.33;;;;;;;;;;5095542;28;20455;-74
2022/05/16 04:06:38;;;;;;;7.60;5.80;;;;;;;;;;5095458;28;20457;-73
2022/05/16 04:09:05;;;;;;;7.40;5.67;;;;;;;;;;5095667;28;20999;-74
2022/05/16 04:11:34;;;;;;;8.83;6.30;;;;;;;;;;5095538;28;20450;-74
2022/05/16 04:14:02;;;;;;;9.43;5.93;;;;;;;;;;5095379;28;20454;-73
2022/05/16 04:16:29;;;;;;;8.07;5.73;;;;;;;;;;5095666;28;20455;-74
2022/05/16 04:18:56;;;;;;;10.57;6.90;;;;;;;;;;5095244;28;20439;-74
2022/05/16 04:21:23;;;;;;;6.10;5.50;;;;;;;;;;5095235;28;20446;-73
2022/05/16 04:23:50;;;;;;;7.20;5.63;;;;;;;;;;5095201;28;20473;-74
2022/05/16 04:26:17;;;;;;;6.57;5.37;;;;;;;;;;5095159;28;20459;-74
2022/05/16 04:28:46;;;;;;;8.63;5.50;;;;;;;;;;5095297;28;20483;-74
2022/05/16 04:31:13;;;;;;;6.30;4.77;;;;;;;;;;5095025;28;20549;-74
2022/05/16 04:33:40;;;;;;;8.43;5.30;;;;;;;;;;5095457;28;20824;-74
2022/05/16 04:36:07;;;;;;;7.13;4.20;;;;;;;;;;5095274;28;20455;-74
2022/05/16 04:38:34;;;;;;;8.00;4.90;;;;;;;;;;5095188;28;20450;-74
2022/05/16 04:43:49;;;;;;;6.00;5.00;;;;;;;;;;5094993;28;20472;-74
2022/05/16 04:46:16;;;;;;;6.37;4.50;;;;;;;;;;5095152;28;20564;-74
2022/05/16 04:48:43;;;;;;;8.90;4.27;;;;;;;;;;5094963;28;20482;-74
2022/05/16 04:51:10;;;;;;;5.50;4.90;;;;;;;;;;5094986;28;21058;-74
2022/05/16 04:53:38;;;;;;;4.50;4.10;;;;;;;;;;5094857;28;20954;-74
2022/05/16 04:56:05;;;;;;;5.43;3.80;;;;;;;;;;5094893;28;20454;-74
2022/05/16 04:58:33;;;;;;;4.00;3.67;;;;;;;;;;5094806;28;20443;-74
2022/05/16 05:01:02;;;;;;;4.97;4.13;;;;;;;;;;5094567;28;20467;-75
2022/05/16 05:03:29;;;;;;;4.90;3.77;;;;;;;;;;5094527;28;20463;-75
2022/05/16 05:05:56;;;;;;;3.97;3.67;;;;;;;;;;5094355;28;20446;-75
2022/05/16 05:08:23;;;;;;;4.87;3.97;;;;;;;;;;5094648;28;20991;-74
2022/05/16 05:16:24;;;;;;;3.73;3.27;;;;;;;;;;5094477;28;20541;-74
2022/05/16 05:18:52;;;;;;;5.57;4.67;;;;;;;;;;5094556;28;20435;-74
2022/05/16 05:21:19;;;;;;;4.60;4.00;;;;;;;;;;5094496;28;20447;-74
2022/05/16 05:23:46;;;;;;;5.10;4.53;;;;;;;;;;5094139;28;20805;-74
2022/05/16 05:26:13;;;;;;;5.60;4.87;;;;;;;;;;5094341;28;20453;-74
2022/05/16 05:28:41;;;;;;;6.03;5.53;;;;;;;;;;5094046;28;20478;-74
2022/05/16 05:31:11;;;;;;;4.40;3.87;;;;;;;;;;5094271;28;20971;-74
2022/05/16 05:33:40;;;;;;;4.60;4.20;;;;;;;;;;5094772;28;20908;-74
2022/05/16 05:36:08;;;;;;;5.10;4.70;;;;;;;;;;5094255;28;20544;-74
2022/05/16 05:38:36;;;;;;;5.17;4.30;;;;;;;;;;5094238;28;20451;-74
2022/05/16 05:41:03;;;;;;;5.50;4.40;;;;;;;;;;5094050;28;20470;-74
2022/05/16 05:43:30;;;;;;;8.23;5.47;;;;;;;;;;5094138;28;20453;-74
2022/05/16 05:45:58;;;;;;;4.77;4.17;;;;;;;;;;5094020;28;20457;-74
2022/05/16 05:48:25;;;;;;;7.00;4.60;;;;;;;;;;5093970;28;20582;-74
2022/05/16 05:50:54;;;;;;;7.57;5.50;;;;;;;;;;5093635;28;20504;-74
2022/05/16 05:53:21;;;;;;;5.67;5.17;;;;;;;;;;5093615;28;20478;-74
2022/05/16 05:55:48;;;;;;;4.50;3.90;;;;;;;;;;5093897;28;20454;-74
2022/05/16 05:58:15;;;;;;;6.40;5.77;;;;;;;;;;5093562;28;20442;-74
2022/05/16 06:00:42;;;;;;;11.57;4.80;;;;;;;;;;5093793;28;20479;-74
2022/05/16 06:03:09;;;;;;;5.60;5.00;;;;;;;;;;5093766;28;20459;-74
2022/05/16 06:05:37;;;;;;;5.97;5.10;;;;;;;;;;5093432;28;20458;-74
2022/05/16 06:08:05;;;;;;;7.20;5.53;;;;;;;;;;5093705;28;20482;-74
2022/05/16 06:10:33;;;;;;;6.37;5.50;;;;;;;;;;5093612;28;20471;-74
2022/05/16 06:13:01;;;;;;;5.93;5.00;;;;;;;;;;5093675;28;20814;-74
2022/05/16 06:15:28;;;;;;;9.23;5.33;;;;;;;;;;5093299;28;20457;-74
2022/05/16 06:17:55;;;;;;;13.30;6.30;;;;;;;;;;5093355;28;20439;-75
2022/05/16 06:20:23;;;;;;;6.97;5.30;;;;;;;;;;5093163;28;20481;-74
2022/05/16 06:22:50;;;;;;;6.40;5.23;;;;;;;;;;5093437;28;20474;-74
2022/05/16 06:25:32;;;;;;;7.27;5.30;;;;;;;;;;5093226;28;20435;-74
2022/05/16 06:28:00;;;;;;;6.47;5.20;;;;;;;;;;5093156;28;20506;-75
2022/05/16 06:30:27;;;;;;;5.57;5.07;;;;;;;;;;5093701;28;20843;-75
2022/05/16 06:32:54;;;;;;;6.07;5.50;;;;;;;;;;5093827;28;20459;-74
2022/05/16 06:35:21;;;;;;;8.83;5.43;;;;;;;;;;5093423;28;20474;-75
2022/05/16 06:37:49;;;;;;;6.50;4.93;;;;;;;;;;5093359;28;20469;-75
2022/05/16 06:40:17;;;;;;;5.53;4.50;;;;;;;;;;5093082;28;20478;-74
2022/05/16 06:42:45;;;;;;;5.43;4.57;;;;;;;;;;5093073;28;20458;-75
2022/05/16 06:45:13;;;;;;;4.83;4.43;;;;;;;;;;5092986;28;20454;-75
2022/05/16 06:47:40;;;;;;;9.10;5.93;;;;;;;;;;5093230;28;20854;-75
2022/05/16 06:50:08;;;;;;;5.40;4.90;;;;;;;;;;5093192;28;20474;-75
2022/05/16 06:52:35;;;;;;;5.80;4.63;;;;;;;;;;5092930;28;20446;-75
2022/05/16 06:55:02;;;;;;;8.40;4.67;;;;;;;;;;5093212;28;20943;-75
2022/05/16 06:57:30;;;;;;;5.77;5.07;;;;;;;;;;5093187;28;20451;-75
2022/05/16 06:59:59;;;;;;;5.07;3.90;;;;;;;;;;5093068;28;20467;-75
2022/05/16 07:02:26;;;;;;;5.80;4.87;;;;;;;;;;5092861;28;20491;-75
2022/05/16 07:04:53;;;;;;;7.00;5.03;;;;;;;;;;5092824;28;20456;-75
2022/05/16 07:07:20;;;;;;;7.70;5.40;;;;;;;;;;5095957;28;20450;-75
2022/05/16 07:09:47;;;;;;;8.90;5.10;;;;;;;;;;5096584;28;20563;-75
2022/05/16 07:12:14;;;;;;;5.60;4.50;;;;;;;;;;5096928;28;20458;-75
2022/05/16 07:14:42;;;;;;;5.30;4.80;;;;;;;;;;5097003;28;20932;-75
2022/05/16 07:17:10;;;;;;;5.00;4.60;;;;;;;;;;5096631;28;20458;-75
2022/05/16 07:19:37;;;;;;;6.30;5.67;;;;;;;;;;5096858;28;20466;-74
2022/05/16 07:22:05;;;;;;;5.97;5.10;;;;;;;;;;5096768;28;20450;-75
2022/05/16 07:24:32;;;;;;;6.30;5.57;;;;;;;;;;5096471;28;20466;-74
2022/05/16 07:29:44;;;;;;;6.23;5.63;;;;;;;;;;5096455;28;20489;-74
2022/05/16 07:32:13;;;;;;;8.23;5.30;;;;;;;;;;5096296;28;20442;-74
2022/05/16 07:34:40;;;;;;;9.83;5.23;;;;;;;;;;5096271;28;20446;-74
2022/05/16 07:37:08;;;;;;;11.80;5.83;;;;;;;;;;5096520;28;20476;-75
2022/05/16 07:39:35;;;;;;;7.60;5.90;;;;;;;;;;5096359;28;20924;-74
2022/05/16 07:42:02;;;;;;;7.63;5.80;;;;;;;;;;5096417;28;20503;-74
2022/05/16 07:44:30;;;;;;;5.83;5.33;;;;;;;;;;5096386;28;20461;-74
2022/05/16 07:46:57;;;;;;;9.93;5.30;;;;;;;;;;5096122;28;20450;-75
2022/05/16 07:49:25;;;;;;;7.43;5.90;;;;;;;;;;5096173;28;20491;-74
2022/05/16 07:51:52;;;;;;;9.43;5.53;;;;;;;;;;5096245;28;21007;-74
2022/05/16 07:54:19;;;;;;;5.70;5.20;;;;;;;;;;5096212;28;20461;-74
2022/05/16 07:56:47;;;;;;;7.83;6.67;;;;;;;;;;5095877;28;20450;-75
2022/05/16 07:59:16;;;;;;;7.90;6.50;;;;;;;;;;5096085;28;20956;-75
2022/05/16 08:01:43;;;;;;;6.77;6.00;;;;;;;;;;5096132;28;20550;-75
2022/05/16 08:04:12;;;;;;;6.27;5.73;;;;;;;;;;5095718;28;20454;-75
2022/05/16 08:06:41;;;;;;;6.83;6.17;;;;;;;;;;5095940;28;21027;-75
2022/05/16 08:11:53;;;;;;;6.00;5.40;;;;;;;;;;5095637;28;20465;-75
2022/05/16 08:14:20;;;;;;;5.43;4.30;;;;;;;;;;5095804;28;20458;-75
2022/05/16 08:16:47;;;;;;;6.70;4.70;;;;;;;;;;5094997;28;20453;-75
2022/05/16 08:19:14;;;;;;;4.90;4.40;;;;;;;;;;5095707;28;20960;-75
2022/05/16 08:21:43;;;;;;;5.03;4.43;;;;;;;;;;5095659;28;20943;-75
2022/05/16 08:24:11;;;;;;;6.33;4.50;;;;;;;;;;5095215;28;20485;-75
2022/05/16 08:26:38;;;;;;;5.83;4.90;;;;;;;;;;5095270;28;20450;-75
2022/05/16 08:29:05;;;;;;;4.73;4.30;;;;;;;;;;5095368;28;20486;-75
2022/05/16 08:31:33;;;;;;;6.47;4.20;;;;;;;;;;5095461;28;20817;-75
2022/05/16 08:34:00;;;;;;;3.67;3.37;;;;;;;;;;5095369;28;20457;-75
2022/05/16 08:41:56;;;;;;;5.10;3.80;;;;;;;;;;5095066;28;20409;-75
2022/05/16 08:44:28;;;;;;;3.93;3.63;;;;;;;;;;5095268;28;20450;-75
2022/05/16 08:46:59;;;;;;;4.50;4.10;;;;;;;;;;5095284;28;20431;-75
2022/05/16 08:49:29;;;;;;;4.57;4.17;;;;;;;;;;5095106;28;21010;-75
2022/05/16 08:51:59;;;;;;;4.47;3.97;;;;;;;;;;5094826;28;20439;-75
2022/05/16 08:54:33;;;;;;;5.80;3.80;;;;;;;;;;5095014;28;20952;-75
2022/05/16 08:57:01;;;;;;;5.43;4.93;;;;;;;;;;5095018;28;20435;-75
2022/05/16 08:59:30;;;;;;;7.53;6.03;;;;;;;;;;5094830;28;20463;-75
2022/05/16 09:01:59;;;;;;;6.93;3.77;;;;;;;;;;5094913;28;20455;-75
2022/05/16 09:04:30;;;;;;;4.93;3.90;;;;;;;;;;5094921;28;20958;-75
2022/05/16 09:07:02;;;;;;;4.70;4.30;;;;;;;;;;5094803;28;20908;-75
2022/05/16 09:09:44;;;;;;;10.33;3.30;;;;;;;;;;5094303;28;20494;-75
2022/05/16 09:12:14;;;;;;;4.90;4.40;;;;;;;;;;5094662;28;20803;-75
2022/05/16 09:14:51;;;;;;;4.03;3.60;;;;;;;;;;5094621;28;20848;-75
2022/05/16 09:17:23;;;;;;;4.60;4.20;;;;;;;;;;5094291;28;20473;-75
2022/05/16 09:19:59;;;;;;;5.53;4.13;;;;;;;;;;5094201;28;20473;-74
2022/05/16 09:22:33;;;;;;;4.07;3.77;;;;;;;;;;5094472;28;20802;-74
2022/05/16 09:25:04;;;;;;;7.60;4.90;;;;;;;;;;5094439;28;20434;-75
2022/05/16 09:30:18;;;;;;;6.17;4.47;;;;;;;;;;5093594;28;20485;-74
2022/05/16 09:32:48;;;;;;;6.53;3.70;;;;;;;;;;5094018;28;20455;-74
2022/05/16 09:35:20;;;;;;;11.23;4.90;;;;;;;;;;5094309;28;21019;-74
2022/05/16 09:37:47;;;;;;;8.47;4.63;;;;;;;;;;5094345;28;20438;-74
2022/05/16 09:40:16;;;;;;;5.90;4.03;;;;;;;;;;5093796;28;20477;-74
2022/05/16 09:42:43;;;;;;;7.00;4.30;;;;;;;;;;5094179;28;20457;-74
2022/05/16 09:45:14;;;;;;;4.43;3.97;;;;;;;;;;5094127;28;20454;-74
2022/05/16 09:47:43;;;;;;;4.83;4.43;;;;;;;;;;5094170;28;20427;-74
2022/05/16 09:50:15;;;;;;;4.60;4.03;;;;;;;;;;5093880;28;20577;-74
2022/05/16 09:52:45;;;;;;;4.70;4.07;;;;;;;;;;5093590;28;20450;-74
2022/05/16 09:55:14;;;;;;;5.73;4.23;;;;;;;;;;5093981;28;20533;-74
2022/05/16 09:57:47;;;;;;;4.50;4.10;;;;;;;;;;5093969;28;20446;-74
2022/05/16 10:00:17;;;;;;;4.27;3.23;;;;;;;;;;5093810;28;20471;-74
2022/05/16 10:02:44;;;;;;;4.60;4.20;;;;;;;;;;5093851;28;20969;-75
2022/05/16 10:05:23;;;;;;;6.17;3.40;;;;;;;;;;5093420;28;20446;-74
2022/05/16 10:07:52;;;;;;;4.90;3.53;;;;;;;;;;5093509;28;20529;-74
2022/05/16 10:10:21;;;;;;;3.87;3.57;;;;;;;;;;5093536;28;20903;-74
2022/05/16 10:12:51;;;;;;;4.40;4.00;;;;;;;;;;5093680;28;20458;-74
2022/05/16 10:15:18;;;;;;;4.43;3.73;;;;;;;;;;5093395;28;20454;-74
2022/05/16 10:17:46;;;;;;;4.00;3.57;;;;;;;;;;5093620;28;20940;-74
2022/05/16 10:20:16;;;;;;;40.53;4.90;;;;;;;;;;5093576;28;20466;-74
2022/05/16 10:22:43;;;;;;;6.13;3.30;;;;;;;;;;5093444;28;20837;-74
2022/05/16 10:25:12;;;;;;;4.40;3.30;;;;;;;;;;5093618;28;20431;-74
2022/05/16 10:27:42;;;;;;;4.20;3.13;;;;;;;;;;5093532;28;20450;-74
2022/05/16 10:30:15;;;;;;;5.30;3.90;;;;;;;;;;5092993;28;20490;-74
2022/05/16 10:35:31;;;;;;;3.80;3.40;;;;;;;;;;5093230;28;20419;-74
2022/05/16 10:38:00;;;;;;;3.60;3.27;;;;;;;;;;5093729;28;20453;-74
2022/05/16 10:40:29;;;;;;;4.43;3.60;;;;;;;;;;5095136;28;20840;-74
2022/05/16 10:43:05;;;;;;;4.47;4.03;;;;;;;;;;5097556;28;20446;-74
2022/05/16 10:45:33;;;;;;;4.93;4.20;;;;;;;;;;5097733;28;20444;-74
2022/05/16 10:48:05;;;;;;;7.70;4.03;;;;;;;;;;5097411;28;20954;-74
2022/05/16 10:50:35;;;;;;;4.00;3.70;;;;;;;;;;5097366;28;20486;-75
2022/05/16 10:53:04;;;;;;;5.17;4.20;;;;;;;;;;5097377;28;20895;-74
2022/05/16 10:55:35;;;;;;;5.63;4.63;;;;;;;;;;5097343;28;20458;-74
2022/05/16 10:58:08;;;;;;;3.93;3.63;;;;;;;;;;5097365;28;20437;-75
2022/05/16 11:00:41;;;;;;;7.43;4.43;;;;;;;;;;5097155;28;20533;-75
2022/05/16 11:03:20;;;;;;;7.47;5.10;;;;;;;;;;5097242;28;20434;-74
2022/05/16 11:05:57;;;;;;;4.03;3.73;;;;;;;;;;5097179;28;20814;-74
2022/05/16 11:08:30;;;;;;;8.60;3.90;;;;;;;;;;5097192;28;20430;-74
2022/05/16 11:11:00;;;;;;;6.17;3.77;;;;;;;;;;5096940;28;21036;-74
2022/05/16 11:13:34;;;;;;;3.63;2.87;;;;;;;;;;5097550;28;20911;-74
2022/05/16 11:16:08;;;;;;;3.13;2.93;;;;;;;;;;5096871;28;20448;-74
2022/05/16 11:18:41;;;;;;;2.70;2.47;;;;;;;;;;5096788;28;20465;-74
2022/05/16 11:21:14;;;;;;;4.03;2.33;;;;;;;;;;5096776;28;20470;-74
2022/05/16 11:23:47;;;;;;;2.63;2.30;;;;;;;;;;5096582;28;20466;-74
2022/05/16 11:26:17;;;;;;;3.10;2.40;;;;;;;;;;5096831;28;20778;-74
2022/05/16 11:29:17;;;;;;;3.27;2.23;;;;;;;;;;5096432;28;20458;-74
2022/05/16 11:31:39;;;;;;;3.80;2.23;;;;;;;;;;5096164;28;20504;-74
2022/05/16 11:34:10;;;;;;;2.27;2.07;;;;;;;;;;5096600;28;20439;-74
2022/05/16 11:36:40;;;;;;;2.50;2.30;;;;;;;;;;5096321;28;20439;-74
2022/05/16 11:39:11;;;;;;;2.77;2.03;;;;;;;;;;5096470;28;20796;-74
2022/05/16 11:41:45;;;;;;;4.03;2.60;;;;;;;;;;5096543;28;20427;-74
2022/05/16 11:44:20;;;;;;;3.93;2.40;;;;;;;;;;5096453;28;20435;-74
2022/05/16 11:46:50;;;;;;;3.20;2.43;;;;;;;;;;5096407;28;20430;-74
2022/05/16 11:49:21;;;;;;;3.10;2.60;;;;;;;;;;5096266;28;20830;-74
2022/05/16 11:52:06;;;;;;;3.70;2.10;;;;;;;;;;5095322;28;20448;-74
2022/05/16 11:54:35;;;;;;;2.73;2.10;;;;;;;;;;5096168;28;20800;-74
2022/05/16 12:03:13;;;;;;;5.10;2.00;;;;;;;;;;5033566;28;20583;-74
2022/05/16 12:05:42;;;;;;;2.13;1.93;;;;;;;;;;5033643;28;20580;-74
2022/05/16 12:08:32;;;;;;;2.40;2.20;;;;;;;;;;5068838;28;20462;-74
2022/05/16 12:11:00;;;;;;;2.53;2.33;;;;;;;;;;5095588;28;20489;-74
2022/05/16 12:13:28;;;;;;;6.30;2.40;;;;;;;;;;5095629;28;20457;-74
2022/05/16 12:16:14;;;;;;;2.00;1.80;;;;;;;;;;5095844;28;20951;-74
2022/05/16 12:18:43;;;;;;;4.00;2.30;;;;;;;;;;5095781;28;20439;-74
2022/05/16 12:21:13;;;;;;;2.97;2.20;;;;;;;;;;5095363;28;20469;-74
2022/05/16 12:24:00;;;;;;;3.27;2.20;;;;;;;;;;5095448;28;20463;-74
2022/05/16 12:26:32;;;;;;;2.60;2.40;;;;;;;;;;5095364;28;20453;-74
2022/05/16 12:29:15;;;;;;;3.30;2.50;;;;;;;;;;5095596;28;20458;-74
2022/05/16 12:31:50;;;;;;;5.10;2.50;;;;;;;;;;5095268;28;20435;-74
2022/05/16 12:34:37;;;;;;;3.90;2.30;;;;;;;;;;5095638;28;20457;-75
2022/05/16 12:37:05;;;;;;;2.90;2.00;;;;;;;;;;5095512;28;20494;-74
2022/05/16 12:39:34;;;;;;;2.53;1.90;;;;;;;;;;5095337;28;20498;-74
2022/05/16 12:42:10;;;;;;;2.50;2.00;;;;;;;;;;5095224;28;20450;-75
2022/05/16 12:44:44;;;;;;;2.20;2.00;;;;;;;;;;5095346;28;20431;-74
2022/05/16 12:47:33;;;;;;;3.73;2.00;;;;;;;;;;5095363;28;20891;-74
2022/05/16 12:50:08;;;;;;;4.20;1.90;;;;;;;;;;5095231;28;21173;-74
2022/05/16 12:52:44;;;;;;;3.73;2.47;;;;;;;;;;5095050;28;20487;-74
2022/05/16 12:55:23;;;;;;;2.87;2.23;;;;;;;;;;5095174;28;20450;-74
2022/05/16 12:58:00;;;;;;;3.37;2.30;;;;;;;;;;5095340;28;20445;-74
2022/05/16 13:00:30;;;;;;;2.30;1.97;;;;;;;;;;5095203;28;20875;-74
2022/05/16 13:03:06;;;;;;;3.77;1.77;;;;;;;;;;5094389;28;20451;-75
2022/05/16 13:05:39;;;;;;;2.47;2.27;;;;;;;;;;5094859;28;20900;-75
2022/05/16 13:08:10;;;;;;;2.20;2.00;;;;;;;;;;5094909;28;20439;-75
2022/05/16 13:10:48;;;;;;;2.13;1.80;;;;;;;;;;5094628;28;20498;-74
2022/05/16 13:13:22;;;;;;;2.73;2.17;;;;;;;;;;5094850;28;20439;-74
2022/05/16 13:15:52;;;;;;;4.63;2.07;;;;;;;;;;5094669;28;20860;-76
2022/05/16 13:18:23;;;;;;;2.63;2.20;;;;;;;;;;5094663;28;20796;-74
2022/05/16 13:20:53;;;;;;;2.93;2.60;;;;;;;;;;5094337;28;20475;-74
2022/05/16 13:23:21;;;;;;;2.97;2.40;;;;;;;;;;5094350;28;20470;-74
2022/05/16 13:31:33;;;;;;;4.77;2.10;;;;;;;;;;5094074;28;20465;-74
2022/05/16 13:34:00;;;;;;;2.63;2.27;;;;;;;;;;5094387;28;20454;-74
2022/05/16 13:36:29;;;;;;;3.60;2.57;;;;;;;;;;5094297;28;20800;-74
2022/05/16 13:38:57;;;;;;;6.63;2.90;;;;;;;;;;5093927;28;20453;-74
2022/05/16 13:41:24;;;;;;;3.13;2.40;;;;;;;;;;5094173;28;20453;-74
2022/05/16 13:43:52;;;;;;;5.30;3.33;;;;;;;;;;5094108;28;20458;-74
2022/05/16 13:46:20;;;;;;;3.40;2.40;;;;;;;;;;5093723;28;20459;-74
2022/05/16 13:48:55;;;;;;;3.40;2.20;;;;;;;;;;5094111;28;20458;-74
2022/05/16 13:51:23;;;;;;;8.10;5.67;;;;;;;;;;5093989;28;20513;-74
2022/05/16 13:53:51;;;;;;;5.50;3.13;;;;;;;;;;5093648;28;20490;-75
2022/05/16 13:56:33;;;;;;;3.23;2.87;;;;;;;;;;5093854;28;20457;-75
2022/05/16 13:59:00;;;;;;;5.73;3.17;;;;;;;;;;5094372;28;21131;-74
2022/05/16 14:01:28;;;;;;;4.50;3.10;;;;;;;;;;5093826;28;20442;-74
2022/05/16 14:03:56;;;;;;;5.43;3.50;;;;;;;;;;5093430;28;20453;-74
2022/05/16 14:06:31;;;;;;;5.13;4.10;;;;;;;;;;5093704;28;20549;-74
2022/05/16 14:09:03;;;;;;;4.60;2.73;;;;;;;;;;5093526;28;20466;-74
2022/05/16 14:11:30;;;;;;;4.77;2.97;;;;;;;;;;5093649;28;20979;-74
2022/05/16 14:13:59;;;;;;;3.40;2.80;;;;;;;;;;5093250;28;20458;-74
2022/05/16 14:16:27;;;;;;;8.73;4.00;;;;;;;;;;5093174;28;20465;-74
2022/05/16 14:19:01;;;;;;;6.80;4.40;;;;;;;;;;5093518;28;20837;-74
2022/05/16 14:21:29;;;;;;;4.40;3.50;;;;;;;;;;5093549;28;20455;-74
2022/05/16 14:24:01;;;;;;;6.40;3.00;;;;;;;;;;5093166;28;20951;-74
2022/05/16 14:26:48;;;;;;;4.50;2.97;;;;;;;;;;5093416;28;20901;-74
2022/05/16 14:29:16;;;;;;;5.63;2.93;;;;;;;;;;5093487;28;20470;-74
2022/05/16 14:31:45;;;;;;;6.80;3.40;;;;;;;;;;5093458;28;20482;-74
2022/05/16 14:34:20;;;;;;;4.30;3.33;;;;;;;;;;5093424;28;20804;-74
2022/05/16 14:36:47;;;;;;;4.90;3.60;;;;;;;;;;5093492;28;20431;-74
2022/05/16 14:39:17;;;;;;;5.90;3.37;;;;;;;;;;5093291;28;20955;-74
2022/05/16 14:41:53;;;;;;;7.73;3.00;;;;;;;;;;5092975;28;20450;-74
2022/05/16 14:44:21;;;;;;;4.63;3.17;;;;;;;;;;5093316;28;20484;-74
2022/05/16 14:46:57;;;;;;;3.63;2.80;;;;;;;;;;5092948;28;20461;-74
2022/05/16 14:49:24;;;;;;;5.70;2.70;;;;;;;;;;5092861;28;20474;-75
2022/05/16 14:51:51;;;;;;;3.37;2.80;;;;;;;;;;5093155;28;20486;-74
2022/05/16 14:54:21;;;;;;;2.40;2.17;;;;;;;;;;5093247;28;20453;-74
2022/05/16 14:56:49;;;;;;;5.03;2.40;;;;;;;;;;5093183;28;20423;-74
2022/05/16 14:59:17;;;;;;;2.97;2.73;;;;;;;;;;5093182;28;20474;-74
2022/05/16 15:04:29;;;;;;;4.00;2.40;;;;;;;;;;5093018;28;20957;-74
2022/05/16 15:06:57;;;;;;;2.50;2.00;;;;;;;;;;5093094;28;20923;-74
2022/05/16 15:09:25;;;;;;;2.60;2.40;;;;;;;;;;5092945;28;20466;-74
2022/05/16 15:11:53;;;;;;;2.57;2.37;;;;;;;;;;5092976;28;20586;-74
2022/05/16 15:14:22;;;;;;;2.27;1.80;;;;;;;;;;5092752;28;20450;-74
2022/05/16 15:16:50;;;;;;;2.70;2.40;;;;;;;;;;5093004;28;20457;-74
2022/05/16 15:19:19;;;;;;;2.63;2.00;;;;;;;;;;5093025;28;20835;-74
2022/05/16 15:21:47;;;;;;;3.60;3.00;;;;;;;;;;5092644;28;20450;-75
2022/05/16 15:24:21;;;;;;;2.40;2.20;;;;;;;;;;5092670;28;20944;-74
2022/05/16 15:26:48;;;;;;;5.10;2.27;;;;;;;;;;5093579;28;20438;-74
2022/05/16 15:29:16;;;;;;;5.17;2.20;;;;;;;;;;5096695;28;20471;-74
2022/05/16 15:31:44;;;;;;;2.73;2.50;;;;;;;;;;5096513;28;20490;-74
2022/05/16 15:34:11;;;;;;;2.10;1.60;;;;;;;;;;5096305;28;20454;-74
2022/05/16 15:36:39;;;;;;;3.17;1.97;;;;;;;;;;5096540;28;20457;-74
2022/05/16 15:39:18;;;;;;;2.77;2.10;;;;;;;;;;5096160;28;20445;-74
2022/05/16 15:41:46;;;;;;;4.70;2.90;;;;;;;;;;5096450;28;20491;-74
2022/05/16 15:44:14;;;;;;;6.90;6.30;;;;;;;;;;5096051;28;20458;-74